sensor_id;sensor_type;location;lat;lon;timestamp;pressure;altitude;pressure_sealevel;temperature;humidity
60015;BME280;45867;52.480;6.056;2023-03-14T00:01:17;98794.16;;;10.02;100.00
60015;BME280;45867;52.480;6.056;2023-03-14T00:03:43;98809.25;;;9.93;100.00
60015;BME280;45867;52.480;6.056;2023-03-14T00:06:10;98809.25;;;9.75;100.00
60015;BME280;45867;52.480;6.056;2023-03-14T00:08:36;98809.53;;;9.56;100.00
60015;BME280;45867;52.480;6.056;2023-03-14T00:11:16;98809.66;;;9.43;100.00
60015;BME280;45867;52.480;6.056;2023-03-14T00:13:42;98825.97;;;9.36;100.00
60015;BME280;45867;52.480;6.056;2023-03-14T00:16:11;98826.28;;;9.34;100.00
60015;BME280;45867;52.480;6.056;2023-03-14T00:18:36;98823.72;;;9.21;100.00
60015;BME280;45867;52.480;6.056;2023-03-14T00:21:03;98819.34;;;9.16;100.00
60015;BME280;45867;52.480;6.056;2023-03-14T00:23:30;98806.47;;;9.15;100.00
60015;BME280;45867;52.480;6.056;2023-03-14T00:26:00;98805.22;;;9.12;100.00
60015;BME280;45867;52.480;6.056;2023-03-14T00:28:26;98795.69;;;9.02;100.00
60015;BME280;45867;52.480;6.056;2023-03-14T00:30:51;98799.72;;;9.00;100.00
60015;BME280;45867;52.480;6.056;2023-03-14T00:33:16;98784.94;;;8.99;100.00
60015;BME280;45867;52.480;6.056;2023-03-14T00:35:42;98785.44;;;9.01;100.00
60015;BME280;45867;52.480;6.056;2023-03-14T00:38:10;98785.31;;;9.06;100.00
60015;BME280;45867;52.480;6.056;2023-03-14T00:40:38;98780.47;;;9.08;100.00
60015;BME280;45867;52.480;6.056;2023-03-14T00:43:04;98785.72;;;8.99;100.00
60015;BME280;45867;52.480;6.056;2023-03-14T00:45:29;98781.66;;;8.93;100.00
60015;BME280;45867;52.480;6.056;2023-03-14T00:47:54;98792.06;;;8.89;100.00
60015;BME280;45867;52.480;6.056;2023-03-14T00:50:20;98794.84;;;8.84;100.00
60015;BME280;45867;52.480;6.056;2023-03-14T00:52:45;98796.03;;;8.78;100.00
60015;BME280;45867;52.480;6.056;2023-03-14T00:55:12;98797.00;;;8.82;100.00
60015;BME280;45867;52.480;6.056;2023-03-14T00:57:38;98797.13;;;8.77;100.00
60015;BME280;45867;52.480;6.056;2023-03-14T01:00:04;98792.94;;;8.76;100.00
60015;BME280;45867;52.480;6.056;2023-03-14T01:02:31;98787.47;;;8.73;100.00
60015;BME280;45867;52.480;6.056;2023-03-14T01:04:56;98781.72;;;8.71;100.00
60015;BME280;45867;52.480;6.056;2023-03-14T01:07:22;98787.44;;;8.64;100.00
60015;BME280;45867;52.480;6.056;2023-03-14T01:09:51;98792.91;;;8.68;100.00
60015;BME280;45867;52.480;6.056;2023-03-14T01:12:16;98789.53;;;8.76;100.00
60015;BME280;45867;52.480;6.056;2023-03-14T01:14:42;98797.28;;;8.81;100.00
60015;BME280;45867;52.480;6.056;2023-03-14T01:17:07;98778.22;;;8.84;100.00
60015;BME280;45867;52.480;6.056;2023-03-14T01:19:32;98781.63;;;8.84;100.00
60015;BME280;45867;52.480;6.056;2023-03-14T01:21:58;98781.00;;;8.79;100.00
60015;BME280;45867;52.480;6.056;2023-03-14T01:24:23;98765.56;;;8.72;100.00
60015;BME280;45867;52.480;6.056;2023-03-14T01:26:48;98780.34;;;8.73;100.00
60015;BME280;45867;52.480;6.056;2023-03-14T01:29:14;98780.63;;;8.72;100.00
60015;BME280;45867;52.480;6.056;2023-03-14T01:31:39;98776.25;;;8.67;100.00
60015;BME280;45867;52.480;6.056;2023-03-14T01:34:04;98761.78;;;8.64;100.00
60015;BME280;45867;52.480;6.056;2023-03-14T01:36:30;98777.34;;;8.66;100.00
60015;BME280;45867;52.480;6.056;2023-03-14T01:38:55;98783.88;;;8.69;100.00
60015;BME280;45867;52.480;6.056;2023-03-14T01:41:23;98778.78;;;8.72;100.00
60015;BME280;45867;52.480;6.056;2023-03-14T01:43:48;98774.41;;;8.68;100.00
60015;BME280;45867;52.480;6.056;2023-03-14T01:46:19;98780.03;;;8.75;100.00
60015;BME280;45867;52.480;6.056;2023-03-14T01:51:22;98763.66;;;8.64;100.00
60015;BME280;45867;52.480;6.056;2023-03-14T01:53:51;98778.03;;;8.80;100.00
60015;BME280;45867;52.480;6.056;2023-03-14T01:56:18;98780.50;;;8.77;100.00
60015;BME280;45867;52.480;6.056;2023-03-14T01:58:47;98774.75;;;8.75;100.00
60015;BME280;45867;52.480;6.056;2023-03-14T02:01:16;98774.91;;;8.78;100.00
60015;BME280;45867;52.480;6.056;2023-03-14T02:03:48;98767.56;;;8.66;100.00
60015;BME280;45867;52.480;6.056;2023-03-14T02:06:17;98775.16;;;8.59;100.00
60015;BME280;45867;52.480;6.056;2023-03-14T02:08:44;98769.50;;;8.52;100.00
60015;BME280;45867;52.480;6.056;2023-03-14T02:11:14;98779.75;;;8.54;100.00
60015;BME280;45867;52.480;6.056;2023-03-14T02:13:39;98784.69;;;8.47;100.00
60015;BME280;45867;52.480;6.056;2023-03-14T02:16:05;98776.63;;;8.43;100.00
60015;BME280;45867;52.480;6.056;2023-03-14T02:18:30;98768.13;;;8.32;100.00
60015;BME280;45867;52.480;6.056;2023-03-14T02:21:18;98780.91;;;8.39;100.00
60015;BME280;45867;52.480;6.056;2023-03-14T02:24:00;98780.53;;;8.32;100.00
60015;BME280;45867;52.480;6.056;2023-03-14T02:26:31;98783.59;;;8.25;100.00
60015;BME280;45867;52.480;6.056;2023-03-14T02:28:59;98778.44;;;8.20;100.00
60015;BME280;45867;52.480;6.056;2023-03-14T02:31:32;98777.28;;;8.12;100.00
60015;BME280;45867;52.480;6.056;2023-03-14T02:33:58;98763.75;;;8.05;100.00
60015;BME280;45867;52.480;6.056;2023-03-14T02:36:25;98773.50;;;8.05;100.00
60015;BME280;45867;52.480;6.056;2023-03-14T02:42:00;98771.47;;;8.01;100.00
60015;BME280;45867;52.480;6.056;2023-03-14T02:44:26;98766.50;;;8.00;100.00
60015;BME280;45867;52.480;6.056;2023-03-14T02:46:51;98750.19;;;7.98;100.00
60015;BME280;45867;52.480;6.056;2023-03-14T02:49:17;98752.41;;;8.05;100.00
60015;BME280;45867;52.480;6.056;2023-03-14T02:51:44;98747.28;;;7.99;100.00
60015;BME280;45867;52.480;6.056;2023-03-14T02:54:10;98738.09;;;7.97;100.00
60015;BME280;45867;52.480;6.056;2023-03-14T02:56:35;98729.38;;;7.96;100.00
60015;BME280;45867;52.480;6.056;2023-03-14T02:59:03;98739.53;;;8.03;100.00
60015;BME280;45867;52.480;6.056;2023-03-14T03:01:28;98739.03;;;8.01;100.00
60015;BME280;45867;52.480;6.056;2023-03-14T03:03:54;98746.91;;;7.92;100.00
60015;BME280;45867;52.480;6.056;2023-03-14T03:06:19;98747.56;;;7.98;100.00
60015;BME280;45867;52.480;6.056;2023-03-14T03:08:45;98734.09;;;7.99;100.00
60015;BME280;45867;52.480;6.056;2023-03-14T03:11:10;98742.47;;;8.01;100.00
60015;BME280;45867;52.480;6.056;2023-03-14T03:13:35;98734.84;;;8.00;100.00
60015;BME280;45867;52.480;6.056;2023-03-14T03:16:01;98728.38;;;8.06;100.00
60015;BME280;45867;52.480;6.056;2023-03-14T03:18:26;98721.72;;;8.09;100.00
60015;BME280;45867;52.480;6.056;2023-03-14T03:20:51;98727.16;;;8.12;100.00
60015;BME280;45867;52.480;6.056;2023-03-14T03:23:17;98730.13;;;8.11;100.00
60015;BME280;45867;52.480;6.056;2023-03-14T03:25:48;98736.81;;;8.17;100.00
60015;BME280;45867;52.480;6.056;2023-03-14T03:28:14;98724.72;;;8.16;100.00
60015;BME280;45867;52.480;6.056;2023-03-14T03:30:40;98724.53;;;8.12;100.00
60015;BME280;45867;52.480;6.056;2023-03-14T03:33:06;98716.81;;;8.16;100.00
60015;BME280;45867;52.480;6.056;2023-03-14T03:35:31;98718.97;;;8.14;100.00
60015;BME280;45867;52.480;6.056;2023-03-14T03:37:57;98715.72;;;8.17;100.00
60015;BME280;45867;52.480;6.056;2023-03-14T03:40:22;98712.13;;;8.13;100.00
60015;BME280;45867;52.480;6.056;2023-03-14T03:42:47;98721.91;;;8.12;100.00
60015;BME280;45867;52.480;6.056;2023-03-14T03:45:13;98724.72;;;8.16;100.00
60015;BME280;45867;52.480;6.056;2023-03-14T03:47:38;98710.28;;;8.13;100.00
60015;BME280;45867;52.480;6.056;2023-03-14T03:50:04;98719.75;;;8.14;100.00
60015;BME280;45867;52.480;6.056;2023-03-14T03:52:29;98727.16;;;8.12;100.00
60015;BME280;45867;52.480;6.056;2023-03-14T03:54:54;98737.72;;;8.12;100.00
60015;BME280;45867;52.480;6.056;2023-03-14T03:57:20;98719.25;;;8.12;100.00
60015;BME280;45867;52.480;6.056;2023-03-14T03:59:45;98720.72;;;8.18;100.00
60015;BME280;45867;52.480;6.056;2023-03-14T04:02:11;98720.50;;;8.15;100.00
60015;BME280;45867;52.480;6.056;2023-03-14T04:04:36;98712.59;;;8.15;100.00
60015;BME280;45867;52.480;6.056;2023-03-14T04:07:03;98710.44;;;8.17;100.00
60015;BME280;45867;52.480;6.056;2023-03-14T04:09:28;98711.22;;;8.17;100.00
60015;BME280;45867;52.480;6.056;2023-03-14T04:11:54;98711.53;;;8.16;100.00
60015;BME280;45867;52.480;6.056;2023-03-14T04:14:19;98711.38;;;8.21;100.00
60015;BME280;45867;52.480;6.056;2023-03-14T04:16:44;98720.63;;;8.32;100.00
60015;BME280;45867;52.480;6.056;2023-03-14T04:19:10;98720.03;;;8.35;100.00
60015;BME280;45867;52.480;6.056;2023-03-14T04:21:38;98719.06;;;8.31;100.00
60015;BME280;45867;52.480;6.056;2023-03-14T04:24:05;98724.22;;;8.36;100.00
60015;BME280;45867;52.480;6.056;2023-03-14T04:26:31;98729.50;;;8.36;100.00
60015;BME280;45867;52.480;6.056;2023-03-14T04:28:56;98713.78;;;8.31;100.00
60015;BME280;45867;52.480;6.056;2023-03-14T04:31:22;98725.97;;;8.41;100.00
60015;BME280;45867;52.480;6.056;2023-03-14T04:33:47;98710.84;;;8.33;100.00
60015;BME280;45867;52.480;6.056;2023-03-14T04:36:13;98718.44;;;8.34;100.00
60015;BME280;45867;52.480;6.056;2023-03-14T04:38:39;98723.72;;;8.34;100.00
60015;BME280;45867;52.480;6.056;2023-03-14T04:41:05;98722.19;;;8.33;100.00
60015;BME280;45867;52.480;6.056;2023-03-14T04:43:30;98717.38;;;8.35;100.00
60015;BME280;45867;52.480;6.056;2023-03-14T04:45:57;98716.91;;;8.33;100.00
60015;BME280;45867;52.480;6.056;2023-03-14T04:48:24;98701.03;;;8.25;100.00
60015;BME280;45867;52.480;6.056;2023-03-14T04:50:49;98703.78;;;8.19;100.00
60015;BME280;45867;52.480;6.056;2023-03-14T04:53:16;98714.63;;;8.18;100.00
60015;BME280;45867;52.480;6.056;2023-03-14T04:55:47;98708.41;;;8.14;100.00
60015;BME280;45867;52.480;6.056;2023-03-14T04:58:12;98701.88;;;8.11;100.00
60015;BME280;45867;52.480;6.056;2023-03-14T05:00:37;98703.25;;;8.09;100.00
60015;BME280;45867;52.480;6.056;2023-03-14T05:03:03;98705.47;;;8.15;100.00
60015;BME280;45867;52.480;6.056;2023-03-14T05:05:28;98704.81;;;8.10;100.00
60015;BME280;45867;52.480;6.056;2023-03-14T05:07:53;98693.00;;;8.07;100.00
60015;BME280;45867;52.480;6.056;2023-03-14T05:10:19;98698.88;;;8.04;100.00
60015;BME280;45867;52.480;6.056;2023-03-14T05:12:44;98706.66;;;8.09;100.00
60015;BME280;45867;52.480;6.056;2023-03-14T05:15:09;98683.31;;;7.94;100.00
60015;BME280;45867;52.480;6.056;2023-03-14T05:17:35;98691.09;;;7.99;100.00
60015;BME280;45867;52.480;6.056;2023-03-14T05:20:01;98684.91;;;8.04;100.00
60015;BME280;45867;52.480;6.056;2023-03-14T05:22:29;98690.66;;;8.06;100.00
60015;BME280;45867;52.480;6.056;2023-03-14T05:24:54;98689.41;;;8.03;100.00
60015;BME280;45867;52.480;6.056;2023-03-14T05:27:22;98685.41;;;8.06;100.00
60015;BME280;45867;52.480;6.056;2023-03-14T05:29:47;98694.13;;;8.15;100.00
60015;BME280;45867;52.480;6.056;2023-03-14T05:32:13;98692.09;;;8.12;100.00
60015;BME280;45867;52.480;6.056;2023-03-14T05:34:39;98696.44;;;8.08;100.00
60015;BME280;45867;52.480;6.056;2023-03-14T05:37:04;98686.78;;;8.03;100.00
60015;BME280;45867;52.480;6.056;2023-03-14T05:39:29;98688.44;;;7.99;100.00
60015;BME280;45867;52.480;6.056;2023-03-14T05:41:54;98692.16;;;7.98;100.00
60015;BME280;45867;52.480;6.056;2023-03-14T05:44:21;98700.09;;;7.98;100.00
60015;BME280;45867;52.480;6.056;2023-03-14T05:46:46;98682.84;;;7.92;100.00
60015;BME280;45867;52.480;6.056;2023-03-14T05:49:11;98690.13;;;7.95;100.00
60015;BME280;45867;52.480;6.056;2023-03-14T05:51:37;98703.63;;;7.93;100.00
60015;BME280;45867;52.480;6.056;2023-03-14T05:54:02;98693.56;;;7.95;100.00
60015;BME280;45867;52.480;6.056;2023-03-14T05:56:30;98703.16;;;7.91;100.00
60015;BME280;45867;52.480;6.056;2023-03-14T05:58:56;98713.50;;;7.88;100.00
60015;BME280;45867;52.480;6.056;2023-03-14T06:01:21;98695.53;;;7.90;100.00
60015;BME280;45867;52.480;6.056;2023-03-14T06:03:46;98702.66;;;7.89;100.00
60015;BME280;45867;52.480;6.056;2023-03-14T06:06:12;98696.84;;;7.78;100.00
60015;BME280;45867;52.480;6.056;2023-03-14T06:08:37;98704.66;;;7.84;100.00
60015;BME280;45867;52.480;6.056;2023-03-14T06:11:03;98695.09;;;7.74;100.00
60015;BME280;45867;52.480;6.056;2023-03-14T06:13:28;98693.72;;;7.76;100.00
60015;BME280;45867;52.480;6.056;2023-03-14T06:15:54;98671.38;;;7.74;100.00
60015;BME280;45867;52.480;6.056;2023-03-14T06:18:19;98683.66;;;7.78;100.00
60015;BME280;45867;52.480;6.056;2023-03-14T06:20:45;98682.94;;;7.87;100.00
60015;BME280;45867;52.480;6.056;2023-03-14T06:23:10;98675.03;;;7.87;100.00
60015;BME280;45867;52.480;6.056;2023-03-14T06:25:37;98679.72;;;7.90;100.00
60015;BME280;45867;52.480;6.056;2023-03-14T06:28:03;98675.41;;;7.94;100.00
60015;BME280;45867;52.480;6.056;2023-03-14T06:30:28;98688.41;;;7.90;100.00
60015;BME280;45867;52.480;6.056;2023-03-14T06:32:54;98688.72;;;7.89;100.00
60015;BME280;45867;52.480;6.056;2023-03-14T06:35:21;98677.78;;;7.82;100.00
60015;BME280;45867;52.480;6.056;2023-03-14T06:37:46;98686.97;;;7.84;100.00
60015;BME280;45867;52.480;6.056;2023-03-14T06:40:12;98688.81;;;7.84;100.00
60015;BME280;45867;52.480;6.056;2023-03-14T06:42:42;98674.22;;;7.77;100.00
60015;BME280;45867;52.480;6.056;2023-03-14T06:45:11;98693.00;;;7.85;100.00
60015;BME280;45867;52.480;6.056;2023-03-14T06:47:36;98697.69;;;7.88;100.00
60015;BME280;45867;52.480;6.056;2023-03-14T06:50:04;98712.44;;;7.89;100.00
60015;BME280;45867;52.480;6.056;2023-03-14T06:52:30;98723.41;;;7.82;100.00
60015;BME280;45867;52.480;6.056;2023-03-14T06:54:55;98723.59;;;7.86;100.00
60015;BME280;45867;52.480;6.056;2023-03-14T06:57:20;98734.38;;;7.75;100.00
60015;BME280;45867;52.480;6.056;2023-03-14T06:59:46;98795.97;;;7.79;100.00
60015;BME280;45867;52.480;6.056;2023-03-14T07:02:12;98790.88;;;7.19;100.00
60015;BME280;45867;52.480;6.056;2023-03-14T07:04:40;98794.25;;;6.78;100.00
60015;BME280;45867;52.480;6.056;2023-03-14T07:07:06;98787.31;;;6.55;100.00
60015;BME280;45867;52.480;6.056;2023-03-14T07:09:32;98812.53;;;6.56;100.00
60015;BME280;45867;52.480;6.056;2023-03-14T07:11:58;98823.13;;;6.51;100.00
60015;BME280;45867;52.480;6.056;2023-03-14T07:14:23;98840.44;;;6.38;100.00
60015;BME280;45867;52.480;6.056;2023-03-14T07:16:48;98843.72;;;6.30;100.00
60015;BME280;45867;52.480;6.056;2023-03-14T07:19:14;98843.78;;;6.25;100.00
60015;BME280;45867;52.480;6.056;2023-03-14T07:21:39;98863.28;;;6.23;100.00
60015;BME280;45867;52.480;6.056;2023-03-14T07:24:05;98865.13;;;6.23;100.00
60015;BME280;45867;52.480;6.056;2023-03-14T07:26:30;98862.13;;;6.11;100.00
60015;BME280;45867;52.480;6.056;2023-03-14T07:28:56;98872.94;;;6.09;100.00
60015;BME280;45867;52.480;6.056;2023-03-14T07:31:21;98885.00;;;6.10;100.00
60015;BME280;45867;52.480;6.056;2023-03-14T07:33:47;98882.38;;;6.10;100.00
60015;BME280;45867;52.480;6.056;2023-03-14T07:36:12;98896.94;;;6.03;100.00
60015;BME280;45867;52.480;6.056;2023-03-14T07:38:37;98893.31;;;5.98;100.00
60015;BME280;45867;52.480;6.056;2023-03-14T07:41:05;98892.56;;;5.98;100.00
60015;BME280;45867;52.480;6.056;2023-03-14T07:43:37;98902.44;;;6.06;100.00
60015;BME280;45867;52.480;6.056;2023-03-14T07:46:02;98926.75;;;6.17;100.00
60015;BME280;45867;52.480;6.056;2023-03-14T07:48:28;98931.97;;;6.22;100.00
60015;BME280;45867;52.480;6.056;2023-03-14T07:50:55;98955.75;;;6.12;100.00
60015;BME280;45867;52.480;6.056;2023-03-14T07:53:21;98969.63;;;5.93;100.00
60015;BME280;45867;52.480;6.056;2023-03-14T07:55:46;98978.88;;;5.86;100.00
60015;BME280;45867;52.480;6.056;2023-03-14T07:58:13;99002.38;;;5.48;100.00
60015;BME280;45867;52.480;6.056;2023-03-14T08:00:38;99002.50;;;5.38;100.00
60015;BME280;45867;52.480;6.056;2023-03-14T08:03:04;99010.38;;;4.98;100.00
60015;BME280;45867;52.480;6.056;2023-03-14T08:05:29;99034.16;;;4.78;100.00
60015;BME280;45867;52.480;6.056;2023-03-14T08:07:55;99038.94;;;4.65;100.00
60015;BME280;45867;52.480;6.056;2023-03-14T08:10:21;99050.00;;;4.52;100.00
60015;BME280;45867;52.480;6.056;2023-03-14T08:12:50;99075.25;;;4.38;100.00
60015;BME280;45867;52.480;6.056;2023-03-14T08:15:16;99087.28;;;4.39;100.00
60015;BME280;45867;52.480;6.056;2023-03-14T08:17:41;99106.19;;;4.31;100.00
60015;BME280;45867;52.480;6.056;2023-03-14T08:20:07;99110.69;;;4.25;100.00
60015;BME280;45867;52.480;6.056;2023-03-14T08:22:37;99111.50;;;4.20;100.00
60015;BME280;45867;52.480;6.056;2023-03-14T08:25:02;99105.44;;;4.20;100.00
60015;BME280;45867;52.480;6.056;2023-03-14T08:27:28;99118.84;;;4.13;100.00
60015;BME280;45867;52.480;6.056;2023-03-14T08:29:54;99136.66;;;4.11;100.00
60015;BME280;45867;52.480;6.056;2023-03-14T08:32:19;99148.72;;;4.12;100.00
60015;BME280;45867;52.480;6.056;2023-03-14T08:34:45;99168.63;;;4.23;100.00
60015;BME280;45867;52.480;6.056;2023-03-14T08:37:10;99176.75;;;4.22;100.00
60015;BME280;45867;52.480;6.056;2023-03-14T08:39:36;99177.81;;;4.21;100.00
60015;BME280;45867;52.480;6.056;2023-03-14T08:42:02;99198.50;;;4.38;100.00
60015;BME280;45867;52.480;6.056;2023-03-14T08:44:27;99207.69;;;4.45;100.00
60015;BME280;45867;52.480;6.056;2023-03-14T08:46:52;99217.09;;;4.52;100.00
60015;BME280;45867;52.480;6.056;2023-03-14T08:49:17;99230.47;;;4.60;100.00
60015;BME280;45867;52.480;6.056;2023-03-14T08:51:43;99244.34;;;4.61;100.00
60015;BME280;45867;52.480;6.056;2023-03-14T08:54:10;99253.00;;;4.72;100.00
60015;BME280;45867;52.480;6.056;2023-03-14T08:56:36;99256.94;;;4.79;100.00
60015;BME280;45867;52.480;6.056;2023-03-14T08:59:03;99274.50;;;4.94;100.00
60015;BME280;45867;52.480;6.056;2023-03-14T09:01:28;99282.06;;;5.11;100.00
60015;BME280;45867;52.480;6.056;2023-03-14T09:03:54;99293.34;;;5.06;100.00
60015;BME280;45867;52.480;6.056;2023-03-14T09:06:19;99308.56;;;5.15;100.00
60015;BME280;45867;52.480;6.056;2023-03-14T09:08:45;99312.50;;;5.02;100.00
60015;BME280;45867;52.480;6.056;2023-03-14T09:11:10;99317.28;;;4.95;100.00
60015;BME280;45867;52.480;6.056;2023-03-14T09:13:36;99337.50;;;4.89;100.00
60015;BME280;45867;52.480;6.056;2023-03-14T09:16:02;99340.38;;;4.87;100.00
60015;BME280;45867;52.480;6.056;2023-03-14T09:18:27;99356.66;;;4.89;100.00
60015;BME280;45867;52.480;6.056;2023-03-14T09:20:55;99366.88;;;5.01;100.00
60015;BME280;45867;52.480;6.056;2023-03-14T09:23:20;99370.28;;;5.02;100.00
60015;BME280;45867;52.480;6.056;2023-03-14T09:25:45;99374.75;;;5.06;100.00
60015;BME280;45867;52.480;6.056;2023-03-14T09:28:11;99390.50;;;5.11;100.00
60015;BME280;45867;52.480;6.056;2023-03-14T09:30:37;99402.84;;;5.21;100.00
60015;BME280;45867;52.480;6.056;2023-03-14T09:33:02;99414.38;;;5.30;100.00
60015;BME280;45867;52.480;6.056;2023-03-14T09:35:28;99409.59;;;5.53;100.00
60015;BME280;45867;52.480;6.056;2023-03-14T09:37:53;99415.06;;;5.67;100.00
60015;BME280;45867;52.480;6.056;2023-03-14T09:40:19;99434.69;;;6.00;100.00
60015;BME280;45867;52.480;6.056;2023-03-14T09:42:51;99450.19;;;6.07;100.00
60015;BME280;45867;52.480;6.056;2023-03-14T09:47:53;99444.34;;;6.20;100.00
60015;BME280;45867;52.480;6.056;2023-03-14T09:50:19;99454.84;;;6.25;100.00
60015;BME280;45867;52.480;6.056;2023-03-14T09:52:48;99476.19;;;6.08;100.00
60015;BME280;45867;52.480;6.056;2023-03-14T09:55:18;99466.50;;;5.88;100.00
60015;BME280;45867;52.480;6.056;2023-03-14T09:57:45;99478.88;;;5.98;100.00
60015;BME280;45867;52.480;6.056;2023-03-14T10:00:22;99494.66;;;5.88;100.00
60015;BME280;45867;52.480;6.056;2023-03-14T10:05:39;99548.84;;;5.53;100.00
60015;BME280;45867;52.480;6.056;2023-03-14T10:08:05;99546.47;;;5.21;100.00
60015;BME280;45867;52.480;6.056;2023-03-14T10:10:32;99545.69;;;5.15;100.00
60015;BME280;45867;52.480;6.056;2023-03-14T10:15:35;99571.16;;;5.15;100.00
60015;BME280;45867;52.480;6.056;2023-03-14T10:18:03;99572.75;;;5.16;100.00
60015;BME280;45867;52.480;6.056;2023-03-14T10:20:39;99588.75;;;5.19;100.00
60015;BME280;45867;52.480;6.056;2023-03-14T10:25:40;99603.22;;;5.22;100.00
60015;BME280;45867;52.480;6.056;2023-03-14T10:28:22;99618.19;;;5.21;100.00
60015;BME280;45867;52.480;6.056;2023-03-14T10:30:48;99610.03;;;5.28;100.00
60015;BME280;45867;52.480;6.056;2023-03-14T10:33:24;99634.78;;;5.63;100.00
60015;BME280;45867;52.480;6.056;2023-03-14T10:35:53;99631.91;;;6.05;100.00
60015;BME280;45867;52.480;6.056;2023-03-14T10:38:23;99627.16;;;6.12;100.00
60015;BME280;45867;52.480;6.056;2023-03-14T10:40:50;99657.94;;;6.12;100.00
60015;BME280;45867;52.480;6.056;2023-03-14T10:43:31;99657.41;;;5.84;100.00
60015;BME280;45867;52.480;6.056;2023-03-14T10:46:00;99672.63;;;5.72;100.00
60015;BME280;45867;52.480;6.056;2023-03-14T10:48:36;99662.09;;;5.67;100.00
60015;BME280;45867;52.480;6.056;2023-03-14T10:51:07;99690.50;;;5.70;100.00
60015;BME280;45867;52.480;6.056;2023-03-14T10:53:39;99712.31;;;5.81;100.00
60015;BME280;45867;52.480;6.056;2023-03-14T10:56:05;99726.06;;;6.03;100.00
60015;BME280;45867;52.480;6.056;2023-03-14T10:58:35;99727.09;;;6.48;100.00
60015;BME280;45867;52.480;6.056;2023-03-14T11:09:50;99780.00;;;8.31;100.00
60015;BME280;45867;52.480;6.056;2023-03-14T11:14:59;99803.13;;;7.61;100.00
60015;BME280;45867;52.480;6.056;2023-03-14T11:17:47;99830.56;;;7.60;100.00
60015;BME280;45867;52.480;6.056;2023-03-14T11:23:01;99836.75;;;7.29;100.00
60015;BME280;45867;52.480;6.056;2023-03-14T11:25:53;99841.34;;;7.63;100.00
60015;BME280;45867;52.480;6.056;2023-03-14T11:31:54;99885.59;;;10.91;100.00
60015;BME280;45867;52.480;6.056;2023-03-14T11:34:27;99882.94;;;11.78;100.00
60015;BME280;45867;52.480;6.056;2023-03-14T11:39:24;99895.25;;;9.44;100.00
60015;BME280;45867;52.480;6.056;2023-03-14T11:41:56;99900.72;;;10.38;100.00
60015;BME280;45867;52.480;6.056;2023-03-14T11:44:28;99914.59;;;12.39;100.00
60015;BME280;45867;52.480;6.056;2023-03-14T11:49:37;99923.06;;;13.80;79.04
60015;BME280;45867;52.480;6.056;2023-03-14T11:52:18;99936.47;;;12.22;77.93
60015;BME280;45867;52.480;6.056;2023-03-14T11:54:50;99936.81;;;10.53;85.46
60015;BME280;45867;52.480;6.056;2023-03-14T11:57:17;99948.47;;;10.33;90.69
60015;BME280;45867;52.480;6.056;2023-03-14T12:08:18;99977.38;;;10.06;93.66
60015;BME280;45867;52.480;6.056;2023-03-14T12:10:56;99973.69;;;9.83;96.73
60015;BME280;45867;52.480;6.056;2023-03-14T12:13:28;99982.06;;;10.76;96.58
60015;BME280;45867;52.480;6.056;2023-03-14T12:15:59;99995.38;;;11.55;91.24
60015;BME280;45867;52.480;6.056;2023-03-14T12:18:32;100000.00;;;10.41;89.32
60015;BME280;45867;52.480;6.056;2023-03-14T12:21:00;100009.81;;;11.16;85.40
60015;BME280;45867;52.480;6.056;2023-03-14T12:23:28;100038.31;;;11.24;82.22
60015;BME280;45867;52.480;6.056;2023-03-14T12:26:12;100031.28;;;10.15;82.00
60015;BME280;45867;52.480;6.056;2023-03-14T12:28:42;100044.03;;;11.78;80.71
60015;BME280;45867;52.480;6.056;2023-03-14T12:39:21;100062.47;;;11.55;58.32
60015;BME280;45867;52.480;6.056;2023-03-14T12:42:07;100079.81;;;10.96;58.12
60015;BME280;45867;52.480;6.056;2023-03-14T12:44:45;100064.78;;;10.25;64.03
60015;BME280;45867;52.480;6.056;2023-03-14T12:49:42;100065.69;;;11.85;61.03
60015;BME280;45867;52.480;6.056;2023-03-14T12:52:14;100088.00;;;11.70;62.73
60015;BME280;45867;52.480;6.056;2023-03-14T12:55:10;100085.28;;;10.14;71.34
60015;BME280;45867;52.480;6.056;2023-03-14T12:57:42;100103.78;;;10.19;71.17
60015;BME280;45867;52.480;6.056;2023-03-14T13:00:23;100098.78;;;11.41;62.62
60015;BME280;45867;52.480;6.056;2023-03-14T13:03:00;100102.16;;;12.12;51.39
60015;BME280;45867;52.480;6.056;2023-03-14T13:05:29;100109.78;;;13.33;47.32
60015;BME280;45867;52.480;6.056;2023-03-14T13:10:27;100133.63;;;12.47;46.92
60015;BME280;45867;52.480;6.056;2023-03-14T13:12:57;100124.69;;;12.70;50.69
60015;BME280;45867;52.480;6.056;2023-03-14T13:15:41;100145.97;;;13.34;49.28
60015;BME280;45867;52.480;6.056;2023-03-14T13:18:13;100163.06;;;12.36;49.22
60015;BME280;45867;52.480;6.056;2023-03-14T13:20:40;100157.34;;;11.64;48.29
60015;BME280;45867;52.480;6.056;2023-03-14T13:23:19;100164.81;;;11.24;55.16
60015;BME280;45867;52.480;6.056;2023-03-14T13:25:45;100164.47;;;11.30;51.69
60015;BME280;45867;52.480;6.056;2023-03-14T13:28:11;100179.53;;;11.54;49.97
60015;BME280;45867;52.480;6.056;2023-03-14T13:30:41;100179.50;;;11.92;50.08
60015;BME280;45867;52.480;6.056;2023-03-14T13:33:12;100194.34;;;12.26;50.43
60015;BME280;45867;52.480;6.056;2023-03-14T13:35:45;100193.41;;;11.84;47.55
60015;BME280;45867;52.480;6.056;2023-03-14T13:38:17;100203.31;;;11.97;49.42
60015;BME280;45867;52.480;6.056;2023-03-14T13:40:45;100212.25;;;11.87;50.06
60015;BME280;45867;52.480;6.056;2023-03-14T13:45:47;100230.63;;;9.81;62.55
60015;BME280;45867;52.480;6.056;2023-03-14T13:48:13;100250.22;;;9.80;71.55
60015;BME280;45867;52.480;6.056;2023-03-14T13:50:45;100234.75;;;8.98;77.65
60015;BME280;45867;52.480;6.056;2023-03-14T13:53:11;100247.50;;;8.09;80.14
60015;BME280;45867;52.480;6.056;2023-03-14T13:55:37;100248.81;;;7.86;84.42
60015;BME280;45867;52.480;6.056;2023-03-14T13:58:02;100260.38;;;7.65;85.74
60015;BME280;45867;52.480;6.056;2023-03-14T14:00:28;100265.19;;;8.14;89.81
60015;BME280;45867;52.480;6.056;2023-03-14T14:02:55;100276.00;;;8.02;90.46
60015;BME280;45867;52.480;6.056;2023-03-14T14:05:22;100280.69;;;7.74;95.50